createdAt,value
2018-04-06T00:03:42.973Z,7.40
2018-04-06T00:08:47.871Z,7.40
2018-04-06T00:13:51.401Z,7.30
2018-04-06T00:18:54.597Z,7.30
2018-04-06T00:23:57.975Z,7.20
2018-04-06T00:29:01.115Z,7.20
2018-04-06T00:34:06.259Z,7.10
2018-04-06T00:39:09.347Z,7.10
2018-04-06T00:49:23.156Z,6.90
2018-04-06T00:54:26.467Z,6.90
2018-04-06T00:59:30.113Z,6.90
2018-04-06T01:04:34.862Z,6.80
2018-04-06T01:09:38.278Z,6.80
2018-04-06T01:14:42.883Z,6.70
2018-04-06T01:19:46.123Z,6.60
2018-04-06T01:24:49.502Z,6.60
2018-04-06T01:29:53.465Z,6.50
2018-04-06T01:34:56.908Z,6.50
2018-04-06T01:40:00.705Z,6.40
2018-04-06T01:45:05.100Z,6.30
2018-04-06T01:50:08.649Z,6.30
2018-04-06T01:55:14.405Z,6.20
2018-04-06T02:00:17.821Z,6.20
2018-04-06T02:05:21.802Z,6.10
2018-04-06T02:10:24.804Z,6.10
2018-04-06T02:15:28.982Z,6.00
2018-04-06T02:20:32.967Z,5.90
2018-04-06T02:25:36.273Z,5.90
2018-04-06T02:30:40.930Z,5.80
2018-04-06T02:35:44.471Z,5.80
2018-04-06T02:40:51.494Z,5.70
2018-04-06T02:45:55.031Z,5.60
2018-04-06T02:50:58.612Z,5.60
2018-04-06T02:56:01.786Z,5.50
2018-04-06T03:01:05.388Z,5.50
2018-04-06T03:06:11.668Z,5.40
2018-04-06T03:11:15.131Z,5.40
2018-04-06T03:16:19.407Z,5.30
2018-04-06T03:21:23.173Z,5.20
2018-04-06T03:26:27.228Z,5.10
2018-04-06T03:31:31.479Z,5.10
2018-04-06T03:41:42.952Z,5.00
2018-04-06T03:46:47.658Z,4.90
2018-04-06T03:51:53.380Z,4.90
2018-04-06T03:56:57.202Z,4.80
2018-04-06T04:02:03.341Z,4.80
2018-04-06T04:07:07.145Z,4.70
2018-04-06T04:12:10.374Z,4.70
2018-04-06T04:17:13.348Z,4.60
2018-04-06T04:22:17.831Z,4.60
2018-04-06T04:27:22.031Z,4.50
2018-04-06T04:32:26.056Z,4.50
2018-04-06T04:37:32.780Z,4.40
2018-04-06T04:42:36.685Z,4.30
2018-04-06T04:47:41.714Z,4.30
2018-04-06T04:52:46.557Z,4.20
2018-04-06T04:57:49.428Z,4.20
2018-04-06T05:02:52.340Z,4.20
2018-04-06T05:07:55.354Z,4.10
2018-04-06T05:12:58.128Z,4.10
2018-04-06T05:18:01.112Z,4.10
2018-04-06T05:23:04.276Z,4.10
2018-04-06T05:28:07.221Z,4.20
2018-04-06T05:33:10.064Z,4.20
2018-04-06T05:38:13.228Z,4.30
2018-04-06T05:43:16.409Z,4.50
2018-04-06T05:48:21.071Z,4.90
2018-04-06T05:53:23.867Z,4.90
2018-04-06T05:58:27.537Z,5.20
2018-04-06T06:03:30.421Z,5.50
2018-04-06T06:08:33.048Z,5.90
2018-04-06T06:13:35.910Z,6.30
2018-04-06T06:18:39.934Z,6.70
2018-04-06T06:23:42.690Z,7.10
2018-04-06T06:28:47.350Z,7.50
2018-04-06T06:33:50.150Z,7.80
2018-04-06T06:38:53.589Z,8.20
2018-04-06T06:43:57.390Z,8.50
2018-04-06T06:49:00.066Z,8.90
2018-04-06T06:54:05.056Z,9.40
2018-04-06T06:59:07.996Z,9.30
2018-04-06T07:04:10.818Z,9.70
2018-04-06T07:09:13.546Z,10.00
2018-04-06T07:14:17.464Z,10.50
2018-04-06T07:19:20.414Z,10.50
2018-04-06T07:24:23.209Z,10.80
2018-04-06T07:29:25.991Z,11.20
2018-04-06T07:34:28.724Z,11.40
2018-04-06T07:39:31.485Z,11.70
2018-04-06T07:44:34.518Z,12.00
2018-04-06T07:49:37.416Z,12.30
2018-04-06T07:54:40.305Z,12.60
2018-04-06T07:59:43.170Z,12.80
2018-04-06T08:04:45.888Z,13.00
2018-04-06T08:09:49.040Z,13.40
2018-04-06T08:14:51.694Z,13.50
2018-04-06T08:19:54.411Z,13.70
2018-04-06T08:24:57.210Z,14.10
2018-04-06T08:30:00.030Z,14.30
2018-04-06T08:35:03.820Z,14.50
2018-04-06T08:40:06.605Z,14.60
2018-04-06T08:45:09.537Z,14.60
2018-04-06T08:50:12.165Z,14.90
2018-04-06T08:55:14.860Z,14.90
2018-04-06T09:00:18.367Z,15.10
2018-04-06T09:05:21.160Z,15.30
2018-04-06T09:10:23.941Z,15.40
2018-04-06T09:15:26.797Z,15.60
2018-04-06T09:20:29.815Z,15.80
2018-04-06T09:25:32.470Z,15.80
2018-04-06T09:30:36.203Z,15.80
2018-04-06T09:35:40.057Z,15.80
2018-04-06T09:40:42.932Z,16.10
2018-04-06T09:45:45.790Z,16.00
2018-04-06T09:50:48.612Z,16.30
2018-04-06T09:55:51.521Z,16.40
2018-04-06T10:00:58.791Z,16.50
2018-04-06T10:06:01.647Z,16.60
2018-04-06T10:11:06.673Z,16.70
2018-04-06T10:16:09.755Z,16.70
2018-04-06T10:21:12.569Z,16.80
2018-04-06T10:26:15.851Z,16.90
2018-04-06T10:31:18.992Z,16.90
2018-04-06T10:36:23.790Z,16.90
2018-04-06T10:41:26.783Z,17.10
2018-04-06T10:46:31.453Z,17.20
2018-04-06T10:51:37.035Z,17.30
2018-04-06T10:56:40.530Z,17.30
2018-04-06T11:01:43.925Z,17.40
2018-04-06T11:06:47.673Z,17.40
2018-04-06T11:11:51.320Z,17.30
2018-04-06T11:16:54.361Z,17.30
2018-04-06T11:21:57.790Z,17.40
2018-04-06T11:27:00.996Z,17.40
2018-04-06T11:32:04.745Z,17.40
2018-04-06T11:37:07.811Z,17.40
2018-04-06T11:42:10.537Z,17.30
2018-04-06T11:47:13.348Z,17.20
2018-04-06T11:52:16.411Z,17.30
2018-04-06T11:57:19.381Z,17.30
2018-04-06T12:02:22.326Z,17.50
2018-04-06T12:07:25.050Z,17.70
2018-04-06T12:12:27.940Z,17.70
2018-04-06T12:17:30.759Z,17.80
2018-04-06T12:22:34.033Z,17.90
2018-04-06T12:27:36.893Z,18.00
2018-04-06T12:32:40.583Z,18.10
2018-04-06T12:37:43.304Z,18.20
2018-04-06T12:42:46.016Z,18.30
2018-04-06T12:47:48.643Z,18.40
2018-04-06T12:52:51.366Z,18.50
2018-04-06T12:57:53.993Z,18.50
2018-04-06T13:02:56.790Z,18.50
2018-04-06T13:07:59.786Z,18.60
2018-04-06T13:13:02.593Z,18.60
2018-04-06T13:18:06.103Z,18.50
2018-04-06T13:23:08.882Z,18.50
2018-04-06T13:28:12.409Z,18.40
2018-04-06T13:33:15.252Z,18.40
2018-04-06T13:38:18.241Z,18.30
2018-04-06T13:43:21.029Z,18.20
2018-04-06T13:48:23.662Z,18.20
2018-04-06T13:53:26.472Z,18.20
2018-04-06T13:58:29.535Z,18.20
2018-04-06T14:03:32.292Z,18.20
2018-04-06T14:08:35.218Z,18.10
2018-04-06T14:13:38.028Z,18.10
2018-04-06T14:18:41.081Z,18.10
2018-04-06T14:23:44.469Z,18.00
2018-04-06T14:28:48.281Z,18.00
2018-04-06T14:33:52.108Z,17.90
2018-04-06T14:38:55.191Z,17.90
2018-04-06T14:43:58.316Z,17.90
2018-04-06T14:49:02.460Z,17.90
2018-04-06T14:54:06.481Z,17.90
2018-04-06T14:59:09.847Z,17.80
2018-04-06T15:04:13.208Z,17.70
2018-04-06T15:09:19.510Z,17.60
2018-04-06T15:14:22.164Z,17.60
2018-04-06T15:19:25.367Z,17.50
2018-04-06T15:24:29.684Z,17.40
2018-04-06T15:29:33.035Z,17.30
2018-04-06T15:34:35.774Z,17.30
2018-04-06T15:39:40.759Z,17.20
2018-04-06T15:44:43.905Z,17.20
2018-04-06T15:49:52.335Z,17.00
2018-04-06T15:54:55.223Z,17.00
2018-04-06T16:00:08.834Z,16.80
2018-04-06T16:05:11.604Z,16.80
2018-04-06T16:10:14.317Z,16.70
2018-04-06T16:15:17.433Z,16.60
2018-04-06T16:20:20.619Z,16.50
2018-04-06T16:25:23.432Z,16.50
2018-04-06T16:30:26.705Z,16.40
2018-04-06T16:35:30.424Z,16.40
2018-04-06T16:40:34.694Z,16.30
2018-04-06T16:45:39.245Z,16.10
2018-04-06T16:50:43.633Z,15.90
2018-04-06T16:55:47.297Z,15.90
2018-04-06T17:00:50.260Z,15.70
2018-04-06T17:05:53.261Z,15.60
2018-04-06T17:10:56.797Z,15.50
2018-04-06T17:16:00.076Z,15.40
2018-04-06T17:21:03.134Z,15.20
2018-04-06T17:26:07.018Z,15.10
2018-04-06T17:31:10.415Z,15.10
2018-04-06T17:36:13.329Z,15.00
2018-04-06T17:41:16.721Z,14.80
2018-04-06T17:46:21.277Z,14.60
2018-04-06T17:51:24.413Z,14.60
2018-04-06T17:56:28.110Z,14.40
2018-04-06T18:01:33.863Z,14.40
2018-04-06T18:06:44.198Z,14.20
2018-04-06T18:11:46.726Z,14.10
2018-04-06T18:16:49.481Z,13.90
2018-04-06T18:21:52.867Z,13.80
2018-04-06T18:26:55.782Z,13.60
2018-04-06T18:31:59.432Z,13.50
2018-04-06T18:37:03.907Z,13.30
2018-04-06T18:42:08.286Z,13.00
2018-04-06T18:47:11.612Z,13.00
2018-04-06T18:52:15.799Z,12.90
2018-04-06T18:57:18.656Z,12.70
2018-04-06T19:02:22.715Z,12.40
2018-04-06T19:07:27.160Z,12.40
2018-04-06T19:12:30.026Z,12.30
2018-04-06T19:17:32.975Z,12.20
2018-04-06T19:22:36.553Z,11.90
2018-04-06T19:27:39.585Z,11.90
2018-04-06T19:32:42.602Z,11.80
2018-04-06T19:37:45.403Z,11.60
2018-04-06T19:42:50.194Z,11.50
2018-04-06T19:47:53.250Z,11.30
2018-04-06T19:52:57.306Z,11.20
2018-04-06T19:58:00.098Z,11.10
2018-04-06T20:03:02.843Z,10.90
2018-04-06T20:08:10.673Z,10.70
2018-04-06T20:13:13.553Z,10.60
2018-04-06T20:18:16.838Z,10.50
2018-04-06T20:23:19.605Z,10.40
2018-04-06T20:28:23.736Z,10.20
2018-04-06T20:33:26.544Z,10.10
2018-04-06T20:38:29.955Z,9.90
2018-04-06T20:43:34.530Z,9.80
2018-04-06T20:48:37.574Z,9.70
2018-04-06T20:53:40.464Z,9.50
2018-04-06T20:58:43.383Z,9.40
2018-04-06T21:03:46.472Z,9.30
2018-04-06T21:08:49.314Z,9.20
2018-04-06T21:13:52.361Z,9.10
2018-04-06T21:18:55.258Z,8.90
2018-04-06T21:23:58.233Z,8.90
2018-04-06T21:29:01.706Z,8.70
2018-04-06T21:34:05.605Z,8.60
2018-04-06T21:39:08.655Z,8.60
2018-04-06T21:44:12.247Z,8.40
2018-04-06T21:49:15.340Z,8.30
2018-04-06T21:54:19.039Z,8.30
2018-04-06T21:59:22.112Z,8.20
2018-04-06T22:04:26.261Z,8.00
2018-04-06T22:09:29.587Z,8.00
2018-04-06T22:14:32.405Z,8.00
2018-04-06T22:19:35.239Z,7.90
2018-04-06T22:24:38.213Z,7.80
2018-04-06T22:29:41.146Z,7.80
2018-04-06T22:34:44.031Z,7.60
2018-04-06T22:39:47.151Z,7.60
2018-04-06T22:44:50.020Z,7.50
2018-04-06T22:49:52.856Z,7.40
2018-04-06T22:54:55.645Z,7.40
2018-04-06T22:59:58.503Z,7.30
2018-04-06T23:05:02.056Z,7.30
2018-04-06T23:10:05.795Z,7.20
2018-04-06T23:15:08.855Z,7.10
2018-04-06T23:20:12.649Z,7.10
2018-04-06T23:25:15.561Z,7.10
2018-04-06T23:30:19.360Z,7.00
2018-04-06T23:35:22.413Z,7.00
2018-04-06T23:40:25.292Z,6.90
2018-04-06T23:45:28.149Z,6.80
2018-04-06T23:50:31.214Z,6.80
2018-04-06T23:55:34.724Z,6.70
